Terminal Aerodrome Forecast
Issued by NWS Omaha/Valley, NE

Home | Current Version | Previous Version | Text Only | Print | Product List | Glossary On
Versions: 1 2 3 4 5 6 7 8 9 10 11 12 13 14 15 16 17 18 19
000
FTUS43 KOAX 301124
TAFLNK
TAF
KLNK 301124Z 3012/0112 05013KT 4SM -RA BR OVC008
      TEMPO 3012/3014 6SM -RA BR OVC012
     FM301800 02012KT 4SM BR OVC007
     FM010100 02010KT 4SM -RA BR OVC007
     FM010700 36014G20KT 3SM -RA BR OVC007=

USA.gov is the U.S. government's official web portal to all federal, state and local government web resources and services.